createdAt,value
2023-05-19T00:00:39.897Z,100178.41
2023-05-19T00:03:09.284Z,100173.13
2023-05-19T00:05:46.179Z,100168.84
2023-05-19T00:08:16.907Z,100177.38
2023-05-19T00:10:44.608Z,100169.97
2023-05-19T00:13:12.318Z,100166.44
2023-05-19T00:15:40.441Z,100170.72
2023-05-19T00:18:09.006Z,100161.63
2023-05-19T00:20:38.117Z,100160.31
2023-05-19T00:23:05.930Z,100165.72
2023-05-19T00:25:33.475Z,100169.97
2023-05-19T00:28:02.480Z,100160.09
2023-05-19T00:30:31.062Z,100158.47
2023-05-19T00:32:59.013Z,100165.72
2023-05-19T00:35:26.616Z,100163.56
2023-05-19T00:37:54.443Z,100161.25
2023-05-19T00:40:22.847Z,100163.97
2023-05-19T00:42:50.353Z,100155.97
2023-05-19T00:45:18.226Z,100164.88
2023-05-19T00:47:45.941Z,100164.47
2023-05-19T00:50:13.493Z,100165.47
2023-05-19T00:52:41.278Z,100163.75
2023-05-19T00:55:09.831Z,100162.63
2023-05-19T00:57:38.540Z,100161.94
2023-05-19T01:00:07.215Z,100160.19
2023-05-19T01:02:35.035Z,100161.63
2023-05-19T01:05:03.015Z,100153.91
2023-05-19T01:07:30.862Z,100158.47
2023-05-19T01:09:58.367Z,100158.94
2023-05-19T01:12:26.265Z,100155.37
2023-05-19T01:14:54.008Z,100159.78
2023-05-19T01:17:29.718Z,100156.66
2023-05-19T01:20:07.209Z,100159.53
2023-05-19T01:22:55.028Z,100152.25
2023-05-19T01:25:37.679Z,100152.56
2023-05-19T01:28:30.132Z,100168.00
2023-05-19T01:31:00.144Z,100168.69
2023-05-19T01:33:29.581Z,100173.16
2023-05-19T01:35:58.131Z,100169.88
2023-05-19T01:38:28.542Z,100173.78
2023-05-19T01:40:56.711Z,100165.09
2023-05-19T01:43:25.963Z,100160.09
2023-05-19T01:45:54.001Z,100159.66
2023-05-19T01:48:23.008Z,100158.34
2023-05-19T01:50:50.849Z,100161.34
2023-05-19T01:53:18.637Z,100158.34
2023-05-19T01:55:56.048Z,100162.37
2023-05-19T01:58:42.722Z,100161.50
2023-05-19T02:01:47.253Z,100158.38
2023-05-19T02:04:15.107Z,100158.13
2023-05-19T02:06:50.105Z,100158.97
2023-05-19T02:09:20.936Z,100171.66
2023-05-19T02:11:54.342Z,100172.69
2023-05-19T02:14:38.606Z,100164.41
2023-05-19T02:17:06.488Z,100161.88
2023-05-19T02:19:39.309Z,100160.88
2023-05-19T02:22:07.183Z,100162.25
2023-05-19T02:24:34.657Z,100160.44
2023-05-19T02:27:02.725Z,100158.28
2023-05-19T02:29:30.554Z,100157.41
2023-05-19T02:31:58.906Z,100156.44
2023-05-19T02:34:26.784Z,100157.00
2023-05-19T02:36:54.595Z,100155.03
2023-05-19T02:39:23.367Z,100157.44
2023-05-19T02:41:50.879Z,100160.44
2023-05-19T02:44:18.689Z,100156.00
2023-05-19T02:46:46.230Z,100150.72
2023-05-19T02:49:13.761Z,100157.00
2023-05-19T02:51:41.713Z,100152.44
2023-05-19T02:54:09.669Z,100155.31
2023-05-19T02:56:37.188Z,100153.88
2023-05-19T02:59:05.165Z,100161.03
2023-05-19T03:01:32.770Z,100156.75
2023-05-19T03:04:00.624Z,100155.75
2023-05-19T03:06:29.499Z,100163.84
2023-05-19T03:08:56.961Z,100158.31
2023-05-19T03:11:24.484Z,100170.97
2023-05-19T03:13:52.252Z,100167.56
2023-05-19T03:16:19.783Z,100170.97
2023-05-19T03:18:47.377Z,100176.81
2023-05-19T03:21:15.265Z,100177.28
2023-05-19T03:23:42.950Z,100170.69
2023-05-19T03:26:10.854Z,100169.00
2023-05-19T03:28:38.662Z,100175.13
2023-05-19T03:31:06.236Z,100176.41
2023-05-19T03:33:34.137Z,100166.75
2023-05-19T03:36:02.275Z,100173.59
2023-05-19T03:38:31.440Z,100173.72
2023-05-19T03:40:58.977Z,100177.13
2023-05-19T03:43:26.754Z,100170.72
2023-05-19T03:45:54.603Z,100162.03
2023-05-19T03:48:23.941Z,100167.16
2023-05-19T03:51:01.965Z,100160.06
2023-05-19T03:53:30.349Z,100161.91
2023-05-19T03:55:58.264Z,100162.59
2023-05-19T03:58:26.839Z,100167.59
2023-05-19T04:00:54.445Z,100168.44
2023-05-19T04:03:22.509Z,100171.88
2023-05-19T04:05:50.131Z,100175.25
2023-05-19T04:08:17.871Z,100176.09
2023-05-19T04:10:45.634Z,100178.53
2023-05-19T04:13:14.960Z,100182.78
2023-05-19T04:15:42.594Z,100179.97
2023-05-19T04:18:10.418Z,100177.66
2023-05-19T04:20:40.899Z,100179.25
2023-05-19T04:23:08.806Z,100176.25
2023-05-19T04:25:36.635Z,100191.91
2023-05-19T04:28:04.401Z,100198.72
2023-05-19T04:30:32.165Z,100186.78
2023-05-19T04:33:01.278Z,100190.88
2023-05-19T04:35:28.919Z,100184.03
2023-05-19T04:37:56.420Z,100194.97
2023-05-19T04:40:24.789Z,100194.38
2023-05-19T04:42:52.685Z,100204.91
2023-05-19T04:45:20.356Z,100201.31
2023-05-19T04:47:49.293Z,100207.69
2023-05-19T04:50:17.060Z,100209.94
2023-05-19T04:52:47.620Z,100208.66
2023-05-19T04:55:16.017Z,100205.50
2023-05-19T04:57:43.883Z,100215.75
2023-05-19T05:00:14.209Z,100210.59
2023-05-19T05:02:43.653Z,100211.62
2023-05-19T05:05:11.244Z,100212.66
2023-05-19T05:07:38.712Z,100206.37
2023-05-19T05:10:07.480Z,100206.56
2023-05-19T05:12:35.721Z,100210.53
2023-05-19T05:15:03.877Z,100208.38
2023-05-19T05:17:31.921Z,100210.16
2023-05-19T05:19:59.679Z,100213.66
2023-05-19T05:22:27.385Z,100223.47
2023-05-19T05:24:55.862Z,100227.41
2023-05-19T05:27:23.419Z,100226.78
2023-05-19T05:29:51.688Z,100218.25
2023-05-19T05:32:20.373Z,100218.53
2023-05-19T05:34:47.903Z,100221.13
2023-05-19T05:37:15.842Z,100221.22
2023-05-19T05:39:43.557Z,100225.25
2023-05-19T05:42:11.136Z,100225.72
2023-05-19T05:44:39.338Z,100225.16
2023-05-19T05:47:07.701Z,100229.91
2023-05-19T05:49:38.252Z,100222.88
2023-05-19T05:52:07.104Z,100230.63
2023-05-19T05:54:35.773Z,100230.59
2023-05-19T05:57:04.251Z,100229.12
2023-05-19T05:59:33.784Z,100225.41
2023-05-19T06:02:01.666Z,100224.97
2023-05-19T06:04:29.738Z,100231.84
2023-05-19T06:07:01.061Z,100232.84
2023-05-19T06:09:30.399Z,100238.34
2023-05-19T06:11:58.539Z,100228.78
2023-05-19T06:14:26.978Z,100241.72
2023-05-19T06:16:55.117Z,100241.94
2023-05-19T06:19:22.849Z,100244.56
2023-05-19T06:21:50.460Z,100235.69
2023-05-19T06:24:18.291Z,100234.72
2023-05-19T06:26:45.868Z,100239.84
2023-05-19T06:29:13.464Z,100254.16
2023-05-19T06:31:41.274Z,100245.22
2023-05-19T06:34:12.289Z,100243.09
2023-05-19T06:36:41.407Z,100248.16
2023-05-19T06:39:09.631Z,100244.50
2023-05-19T06:41:37.434Z,100250.13
2023-05-19T06:44:07.235Z,100246.44
2023-05-19T06:46:35.326Z,100259.19
2023-05-19T06:49:02.792Z,100256.81
2023-05-19T06:51:31.506Z,100266.72
2023-05-19T06:54:00.548Z,100272.28
2023-05-19T06:56:28.270Z,100272.50
2023-05-19T06:58:56.508Z,100278.75
2023-05-19T07:01:27.851Z,100279.19
2023-05-19T07:03:56.237Z,100285.47
2023-05-19T07:06:23.778Z,100275.03
2023-05-19T07:08:53.018Z,100277.31
2023-05-19T07:11:21.759Z,100272.38
2023-05-19T07:13:49.429Z,100266.66
2023-05-19T07:16:17.740Z,100267.84
2023-05-19T07:18:45.550Z,100275.28
2023-05-19T07:21:13.084Z,100278.50
2023-05-19T07:23:40.829Z,100261.97
2023-05-19T07:26:08.348Z,100270.31
2023-05-19T07:28:35.932Z,100265.59
2023-05-19T07:31:03.806Z,100266.78
2023-05-19T07:33:31.294Z,100260.28
2023-05-19T07:35:58.741Z,100265.09
2023-05-19T07:38:27.025Z,100260.28
2023-05-19T07:40:54.545Z,100258.25
2023-05-19T07:43:22.029Z,100260.59
2023-05-19T07:45:49.856Z,100261.75
2023-05-19T07:48:18.891Z,100258.03
2023-05-19T07:50:46.753Z,100261.19
2023-05-19T07:53:14.749Z,100258.66
2023-05-19T07:55:42.229Z,100266.25
2023-05-19T07:58:09.706Z,100259.97
2023-05-19T08:00:38.085Z,100253.59
2023-05-19T08:03:05.928Z,100250.81
2023-05-19T08:05:34.992Z,100253.78
2023-05-19T08:08:02.846Z,100248.25
2023-05-19T08:10:30.956Z,100249.72
2023-05-19T08:12:58.802Z,100244.94
2023-05-19T08:15:26.427Z,100244.00
2023-05-19T08:17:54.278Z,100243.34
2023-05-19T08:20:23.014Z,100236.28
2023-05-19T08:22:50.808Z,100239.06
2023-05-19T08:25:19.879Z,100247.03
2023-05-19T08:27:47.346Z,100246.84
2023-05-19T08:30:14.894Z,100240.72
2023-05-19T08:32:42.665Z,100242.84
2023-05-19T08:35:11.572Z,100241.47
2023-05-19T08:37:39.357Z,100243.53
2023-05-19T08:40:08.899Z,100242.69
2023-05-19T08:42:36.491Z,100236.44
2023-05-19T08:45:04.454Z,100231.44
2023-05-19T08:47:32.489Z,100238.44
2023-05-19T08:50:10.947Z,100231.94
2023-05-19T08:52:52.548Z,100235.19
2023-05-19T08:55:35.666Z,100247.94
2023-05-19T08:58:04.209Z,100247.59
2023-05-19T09:00:32.503Z,100239.06
2023-05-19T09:03:17.749Z,100231.78
2023-05-19T09:05:49.203Z,100231.44
2023-05-19T09:08:16.747Z,100233.81
2023-05-19T09:10:44.317Z,100237.37
2023-05-19T09:13:12.070Z,100235.12
2023-05-19T09:15:39.956Z,100227.19
2023-05-19T09:18:15.214Z,100233.78
2023-05-19T09:20:44.427Z,100232.75
2023-05-19T09:23:16.966Z,100228.56
2023-05-19T09:25:51.952Z,100230.09
2023-05-19T09:28:30.636Z,100219.34
2023-05-19T09:31:11.573Z,100217.19
2023-05-19T09:33:44.373Z,100220.13
2023-05-19T09:36:13.996Z,100220.72
2023-05-19T09:38:41.785Z,100224.69
2023-05-19T09:41:09.808Z,100215.66
2023-05-19T09:43:37.648Z,100215.38
2023-05-19T09:46:11.874Z,100213.69
2023-05-19T09:48:40.598Z,100211.81
2023-05-19T09:51:10.365Z,100210.63
2023-05-19T09:53:39.151Z,100200.47
2023-05-19T09:56:08.840Z,100205.44
2023-05-19T09:58:37.221Z,100196.13
2023-05-19T10:01:05.441Z,100204.38
2023-05-19T10:03:34.117Z,100189.03
2023-05-19T10:06:02.277Z,100188.88
2023-05-19T10:08:30.839Z,100190.16
2023-05-19T10:10:59.387Z,100186.22
2023-05-19T10:13:27.219Z,100179.22
2023-05-19T10:15:59.457Z,100187.44
2023-05-19T10:18:29.553Z,100186.16
2023-05-19T10:20:58.213Z,100183.66
2023-05-19T10:23:26.478Z,100181.91
2023-05-19T10:25:57.008Z,100176.78
2023-05-19T10:28:28.321Z,100181.00
2023-05-19T10:30:59.023Z,100177.16
2023-05-19T10:33:54.146Z,100170.47
2023-05-19T10:36:32.537Z,100172.56
2023-05-19T10:39:17.561Z,100171.63
2023-05-19T10:41:54.008Z,100174.72
2023-05-19T10:44:47.040Z,100169.91
2023-05-19T10:47:14.856Z,100161.69
2023-05-19T10:49:42.447Z,100165.66
2023-05-19T10:52:25.989Z,100162.25
2023-05-19T10:54:54.971Z,100151.94
2023-05-19T10:57:27.954Z,100160.34
2023-05-19T10:59:57.168Z,100151.44
2023-05-19T11:02:44.230Z,100153.19
2023-05-19T11:05:18.453Z,100153.19
2023-05-19T11:08:08.915Z,100148.63
2023-05-19T11:10:37.155Z,100152.78
2023-05-19T11:13:06.531Z,100145.94
2023-05-19T11:15:36.270Z,100141.81
2023-05-19T11:18:04.828Z,100142.66
2023-05-19T11:20:34.966Z,100137.38
2023-05-19T11:23:18.535Z,100134.81
2023-05-19T11:25:51.483Z,100135.56
2023-05-19T11:28:21.126Z,100140.69
2023-05-19T11:30:50.787Z,100139.38
2023-05-19T11:33:20.647Z,100138.84
2023-05-19T11:35:50.616Z,100135.72
2023-05-19T11:38:19.162Z,100126.22
2023-05-19T11:40:48.107Z,100126.28
2023-05-19T11:43:16.796Z,100144.81
2023-05-19T11:45:45.127Z,100137.19
2023-05-19T11:48:13.152Z,100141.69
2023-05-19T11:50:41.836Z,100140.75
2023-05-19T11:53:13.375Z,100144.31
2023-05-19T11:55:47.844Z,100148.31
2023-05-19T11:58:16.958Z,100146.16
2023-05-19T12:00:48.243Z,100138.91
2023-05-19T12:03:17.594Z,100148.72
2023-05-19T12:05:47.341Z,100140.50
2023-05-19T12:08:18.024Z,100130.81
2023-05-19T12:10:50.595Z,100142.37
2023-05-19T12:13:19.555Z,100134.28
2023-05-19T12:15:47.232Z,100130.97
2023-05-19T12:18:14.837Z,100121.00
2023-05-19T12:20:43.293Z,100117.12
2023-05-19T12:23:11.270Z,100115.97
2023-05-19T12:25:38.957Z,100116.19
2023-05-19T12:28:07.355Z,100120.31
2023-05-19T12:30:35.508Z,100110.53
2023-05-19T12:33:03.607Z,100101.78
2023-05-19T12:35:36.378Z,100103.34
2023-05-19T12:38:07.656Z,100101.75
2023-05-19T12:40:37.315Z,100087.09
2023-05-19T12:43:06.980Z,100091.53
2023-05-19T12:45:36.187Z,100082.62
2023-05-19T12:48:11.975Z,100081.91
2023-05-19T12:50:39.889Z,100081.47
2023-05-19T12:53:14.232Z,100075.56
2023-05-19T12:55:43.379Z,100077.03
2023-05-19T12:58:15.892Z,100069.53
2023-05-19T13:00:46.449Z,100077.25
2023-05-19T13:03:18.992Z,100080.03
2023-05-19T13:05:48.378Z,100073.09
2023-05-19T13:08:18.448Z,100082.31
2023-05-19T13:10:46.762Z,100064.50
2023-05-19T13:13:14.960Z,100072.81
2023-05-19T13:15:48.793Z,100070.00
2023-05-19T13:18:17.689Z,100067.00
2023-05-19T13:20:46.531Z,100064.59
2023-05-19T13:23:14.519Z,100055.38
2023-05-19T13:25:42.835Z,100058.63
2023-05-19T13:28:11.185Z,100055.31
2023-05-19T13:30:40.488Z,100052.00
2023-05-19T13:33:08.667Z,100050.50
2023-05-19T13:35:39.087Z,100046.87
2023-05-19T13:38:10.086Z,100036.78
2023-05-19T13:40:39.798Z,100041.00
2023-05-19T13:43:08.861Z,100041.22
2023-05-19T13:45:36.663Z,100033.03
2023-05-19T13:48:06.642Z,100037.75
2023-05-19T13:50:34.409Z,100030.41
2023-05-19T13:53:01.916Z,100035.91
2023-05-19T13:55:29.746Z,100035.44
2023-05-19T13:57:57.319Z,100038.25
2023-05-19T14:00:25.030Z,100032.91
2023-05-19T14:02:53.008Z,100028.56
2023-05-19T14:05:20.576Z,100033.22
2023-05-19T14:07:48.287Z,100019.53
2023-05-19T14:10:16.253Z,100023.06
2023-05-19T14:13:08.010Z,100019.28
2023-05-19T14:15:34.598Z,100022.66
2023-05-19T14:18:02.800Z,100023.56
2023-05-19T14:20:32.116Z,100025.09
2023-05-19T14:23:00.217Z,100017.69
2023-05-19T14:25:27.708Z,100019.78
2023-05-19T14:27:55.457Z,100023.03
2023-05-19T14:30:23.150Z,100028.16
2023-05-19T14:32:50.751Z,100023.81
2023-05-19T14:35:18.750Z,100025.16
2023-05-19T14:37:46.424Z,100025.25
2023-05-19T14:40:14.072Z,100023.47
2023-05-19T14:42:41.832Z,100016.37
2023-05-19T14:45:09.830Z,100016.94
2023-05-19T14:47:37.378Z,100014.44
2023-05-19T14:50:05.658Z,100019.75
2023-05-19T14:52:33.172Z,100016.91
2023-05-19T14:55:00.720Z,100014.72
2023-05-19T14:57:28.602Z,100007.91
2023-05-19T14:59:56.099Z,100006.87
2023-05-19T15:02:23.994Z,100001.50
2023-05-19T15:04:51.991Z,100007.22
2023-05-19T15:07:19.624Z,100011.69
2023-05-19T15:09:47.194Z,100011.19
2023-05-19T15:12:15.056Z,100008.81
2023-05-19T15:14:42.547Z,100005.53
2023-05-19T15:17:10.256Z,100004.94
2023-05-19T15:19:38.287Z,100005.28
2023-05-19T15:22:05.788Z,100007.13
2023-05-19T15:24:33.323Z,100010.75
2023-05-19T15:27:01.765Z,100004.19
2023-05-19T15:29:30.632Z,100001.47
2023-05-19T15:32:00.460Z,100006.59
2023-05-19T15:34:28.643Z,100000.72
2023-05-19T15:36:56.139Z,100002.97
2023-05-19T15:39:23.686Z,100006.94
2023-05-19T15:41:51.680Z,100005.03
2023-05-19T15:44:19.240Z,100015.28
2023-05-19T15:46:46.737Z,100002.63
2023-05-19T15:49:18.060Z,100010.69
2023-05-19T15:51:45.871Z,100001.44
2023-05-19T15:54:13.394Z,100011.84
2023-05-19T15:56:41.166Z,99997.44
2023-05-19T15:59:08.641Z,100010.19
2023-05-19T16:01:36.391Z,100004.78
2023-05-19T16:04:04.792Z,100002.69
2023-05-19T16:06:32.526Z,99996.62
2023-05-19T16:09:00.130Z,100002.72
2023-05-19T16:11:28.116Z,99999.13
2023-05-19T16:13:55.885Z,99998.88
2023-05-19T16:16:23.418Z,100002.44
2023-05-19T16:18:51.282Z,100004.28
2023-05-19T16:21:18.879Z,100003.69
2023-05-19T16:23:46.446Z,100007.00
2023-05-19T16:26:14.188Z,100004.94
2023-05-19T16:28:41.851Z,100003.75
2023-05-19T16:31:09.682Z,100000.59
2023-05-19T16:33:37.682Z,100008.56
2023-05-19T16:36:06.462Z,100002.91
2023-05-19T16:38:34.120Z,100002.25
2023-05-19T16:41:03.713Z,100013.56
2023-05-19T16:43:33.442Z,100018.81
2023-05-19T16:46:03.428Z,100016.97
2023-05-19T16:48:31.402Z,100012.28
2023-05-19T16:50:59.409Z,100008.06
2023-05-19T16:53:26.947Z,100007.06
2023-05-19T16:55:54.697Z,100012.09
2023-05-19T16:58:22.270Z,100001.38
2023-05-19T17:00:52.040Z,99995.06
2023-05-19T17:03:20.352Z,100003.03
2023-05-19T17:05:48.340Z,100004.53
2023-05-19T17:08:16.647Z,100000.06
2023-05-19T17:10:44.925Z,99993.72
2023-05-19T17:13:12.389Z,99993.28
2023-05-19T17:15:42.275Z,99990.12
2023-05-19T17:18:12.694Z,99997.72
2023-05-19T17:20:40.306Z,99993.63
2023-05-19T17:23:08.277Z,99996.72
2023-05-19T17:25:36.368Z,99998.19
2023-05-19T17:28:03.905Z,100006.56
2023-05-19T17:30:31.609Z,100004.09
2023-05-19T17:32:59.786Z,100008.38
2023-05-19T17:35:28.533Z,100016.19
2023-05-19T17:37:57.895Z,100019.44
2023-05-19T17:40:26.072Z,100021.09
2023-05-19T17:42:53.576Z,100015.50
2023-05-19T17:45:21.170Z,100022.12
2023-05-19T17:47:49.065Z,100022.97
2023-05-19T17:50:16.681Z,100027.59
2023-05-19T17:52:44.449Z,100024.28
2023-05-19T17:55:12.904Z,100023.81
2023-05-19T17:57:40.509Z,100023.97
2023-05-19T18:00:09.027Z,100020.63
2023-05-19T18:02:37.059Z,100025.91
2023-05-19T18:05:05.191Z,100021.00
2023-05-19T18:07:32.863Z,100025.66
2023-05-19T18:10:01.695Z,100028.13
2023-05-19T18:12:29.333Z,100026.19
2023-05-19T18:14:56.839Z,100021.56
2023-05-19T18:17:24.694Z,100027.59
2023-05-19T18:19:52.225Z,100032.97
2023-05-19T18:22:19.801Z,100026.59
2023-05-19T18:24:47.642Z,100033.00
2023-05-19T18:27:15.136Z,100039.25
2023-05-19T18:29:42.610Z,100027.69
2023-05-19T18:32:10.606Z,100033.53
2023-05-19T18:34:38.172Z,100028.75
2023-05-19T18:37:05.993Z,100041.06
2023-05-19T18:39:33.774Z,100038.62
2023-05-19T18:42:01.981Z,100031.19
2023-05-19T18:44:29.791Z,100044.37
2023-05-19T18:46:57.567Z,100039.88
2023-05-19T18:49:25.262Z,100034.81
2023-05-19T18:51:52.844Z,100036.72
2023-05-19T18:54:21.769Z,100033.87
2023-05-19T18:56:49.278Z,100036.78
2023-05-19T18:59:16.824Z,100034.88
2023-05-19T19:01:45.297Z,100046.69
2023-05-19T19:04:14.852Z,100054.19
2023-05-19T19:06:43.791Z,100046.56
2023-05-19T19:09:11.748Z,100058.16
2023-05-19T19:11:39.219Z,100047.97
2023-05-19T19:14:07.059Z,100053.66
2023-05-19T19:16:35.112Z,100051.53
2023-05-19T19:19:02.826Z,100059.31
2023-05-19T19:21:31.664Z,100055.78
2023-05-19T19:23:59.409Z,100051.38
2023-05-19T19:26:28.948Z,100057.37
2023-05-19T19:28:56.704Z,100072.38
2023-05-19T19:31:28.710Z,100067.78
2023-05-19T19:34:03.129Z,100082.13
2023-05-19T19:36:31.947Z,100083.25
2023-05-19T19:38:59.711Z,100071.03
2023-05-19T19:41:29.803Z,100083.63
2023-05-19T19:43:57.567Z,100082.44
2023-05-19T19:46:25.146Z,100077.87
2023-05-19T19:48:52.832Z,100071.63
2023-05-19T19:51:20.703Z,100086.75
2023-05-19T19:53:48.193Z,100087.28
2023-05-19T19:56:15.874Z,100088.44
2023-05-19T19:58:43.814Z,100084.37
2023-05-19T20:01:11.415Z,100091.53
2023-05-19T20:03:39.565Z,100082.34
2023-05-19T20:06:07.781Z,100074.91
2023-05-19T20:08:35.870Z,100084.75
2023-05-19T20:11:03.638Z,100084.72
2023-05-19T20:13:32.767Z,100083.03
2023-05-19T20:16:01.164Z,100085.75
2023-05-19T20:18:30.123Z,100084.94
2023-05-19T20:20:57.790Z,100083.00
2023-05-19T20:23:25.312Z,100079.28
2023-05-19T20:26:10.319Z,100088.13
2023-05-19T20:28:39.830Z,100074.72
2023-05-19T20:31:07.791Z,100080.13
2023-05-19T20:33:35.381Z,100086.25
2023-05-19T20:36:02.897Z,100074.34
2023-05-19T20:38:30.677Z,100083.38
2023-05-19T20:40:58.130Z,100088.78
2023-05-19T20:43:25.656Z,100084.00
2023-05-19T20:45:53.522Z,100089.97
2023-05-19T20:48:21.264Z,100090.31
2023-05-19T20:50:49.045Z,100078.09
2023-05-19T20:53:17.099Z,100080.66
2023-05-19T20:55:45.617Z,100065.19
2023-05-19T20:58:13.254Z,100067.91
2023-05-19T21:00:41.408Z,100064.50
2023-05-19T21:03:08.949Z,100063.19
2023-05-19T21:05:36.847Z,100057.56
2023-05-19T21:08:04.724Z,100058.91
2023-05-19T21:10:32.374Z,100055.34
2023-05-19T21:13:00.105Z,100059.75
2023-05-19T21:15:30.853Z,100070.94
2023-05-19T21:17:58.436Z,100065.97
2023-05-19T21:20:27.791Z,100084.00
2023-05-19T21:22:56.650Z,100074.84
2023-05-19T21:25:24.162Z,100076.19
2023-05-19T21:27:51.626Z,100082.16
2023-05-19T21:30:19.614Z,100075.53
2023-05-19T21:32:47.093Z,100074.69
2023-05-19T21:35:14.592Z,100076.72
2023-05-19T21:37:42.497Z,100074.16
2023-05-19T21:40:10.265Z,100071.13
2023-05-19T21:42:37.801Z,100069.94
2023-05-19T21:45:06.615Z,100068.22
2023-05-19T21:47:34.107Z,100059.41
2023-05-19T21:50:01.693Z,100063.47
2023-05-19T21:52:30.388Z,100065.50
2023-05-19T21:54:58.296Z,100070.78
2023-05-19T21:57:25.919Z,100078.59
2023-05-19T21:59:53.713Z,100075.56
2023-05-19T22:02:21.248Z,100073.16
2023-05-19T22:04:49.041Z,100066.03
2023-05-19T22:07:16.636Z,100066.16
2023-05-19T22:09:44.155Z,100058.88
2023-05-19T22:12:11.911Z,100048.53
2023-05-19T22:14:39.432Z,100047.50
2023-05-19T22:17:06.888Z,100038.84
2023-05-19T22:19:34.602Z,100033.75
2023-05-19T22:22:12.739Z,100037.16
2023-05-19T22:24:42.036Z,100027.63
2023-05-19T22:27:09.815Z,100032.34
2023-05-19T22:29:40.460Z,100016.44
2023-05-19T22:32:12.081Z,100015.41
2023-05-19T22:34:40.170Z,100018.47
2023-05-19T22:37:08.055Z,100020.16
2023-05-19T22:39:35.612Z,100013.87
2023-05-19T22:42:03.066Z,100011.50
2023-05-19T22:44:30.966Z,100012.81
2023-05-19T22:46:58.605Z,100020.63
2023-05-19T22:49:27.434Z,100006.22
2023-05-19T22:51:55.213Z,100016.72
2023-05-19T22:54:22.671Z,100006.72
2023-05-19T22:56:50.208Z,100006.31
2023-05-19T22:59:18.253Z,100013.31
2023-05-19T23:01:46.829Z,100009.59
2023-05-19T23:04:14.685Z,100019.63
2023-05-19T23:06:42.541Z,100016.72
2023-05-19T23:09:10.078Z,100020.59
2023-05-19T23:11:37.552Z,100020.00
2023-05-19T23:14:05.667Z,100007.81
2023-05-19T23:16:33.221Z,100011.56
2023-05-19T23:19:01.049Z,100001.03
2023-05-19T23:21:30.287Z,100001.88
2023-05-19T23:23:57.892Z,99999.72
2023-05-19T23:26:26.367Z,99991.22
2023-05-19T23:28:54.127Z,99991.75
2023-05-19T23:31:21.725Z,99995.69
2023-05-19T23:33:49.380Z,99980.75
2023-05-19T23:36:17.823Z,99991.44
2023-05-19T23:38:45.599Z,99992.31
2023-05-19T23:41:13.029Z,100002.13
2023-05-19T23:43:40.775Z,99988.84
2023-05-19T23:46:08.381Z,99987.09
2023-05-19T23:48:36.717Z,99987.59
2023-05-19T23:51:04.658Z,99982.00
2023-05-19T23:53:32.147Z,99976.09
2023-05-19T23:55:59.610Z,99973.88
2023-05-19T23:58:27.417Z,99971.88
